Time;durP1;ratioP1;P1;durP2;ratioP2;P2;SDS_P1;SDS_P2;PMS_P1;PMS_P2;Temp;Humidity;BMP_temperature;BMP_pressure;BME280_temperature;BME280_humidity;BME280_pressure;Samples;Min_cycle;Max_cycle;Signal;HPM_P1;HPM_P2
2022/08/31 04:00:35;;;;;;;7.78;4.40;;;;;;;17.96;96.18;100468.91;6555703;26;20103;-86
2022/08/31 04:03:39;;;;;;;7.53;4.47;;;;;;;17.89;96.94;100468.97;6606834;27;33977;-87
2022/08/31 04:06:44;;;;;;;4.53;3.87;;;;;;;17.85;97.04;100465.88;6606512;27;32332;-87
2022/08/31 04:10:00;;;;;;;5.30;4.15;;;;;;;17.84;99.62;100472.38;6610384;27;33431;-87
2022/08/31 04:13:07;;;;;;;5.28;4.05;;;;;;;17.82;96.62;100463.59;6588914;27;31857;-87
2022/08/31 04:16:15;;;;;;;6.25;4.18;;;;;;;17.85;97.64;100479.50;6606589;27;33621;-87
2022/08/31 04:19:21;;;;;;;6.18;4.55;;;;;;;17.82;98.75;100479.12;6606356;27;31915;-88
2022/08/31 04:22:24;;;;;;;6.78;4.00;;;;;;;17.81;100.00;100481.00;6606223;27;34913;-87
2022/08/31 04:25:29;;;;;;;5.15;3.90;;;;;;;17.79;99.48;100487.72;6606971;27;33723;-87
2022/08/31 04:28:32;;;;;;;7.05;4.35;;;;;;;17.80;100.00;100490.22;6606812;27;33582;-87
2022/08/31 04:31:36;;;;;;;5.30;4.37;;;;;;;17.79;100.00;100485.84;6606655;27;33444;-87
2022/08/31 04:34:39;;;;;;;6.18;4.65;;;;;;;17.82;100.00;100490.84;6607708;27;34427;-87
2022/08/31 04:37:41;;;;;;;6.75;4.35;;;;;;;17.89;100.00;100488.03;6607248;26;32981;-87
2022/08/31 04:40:48;;;;;;;6.00;4.37;;;;;;;17.96;98.86;100488.84;6606513;27;34490;-87
2022/08/31 04:43:57;;;;;;;5.53;4.40;;;;;;;17.98;97.98;100491.31;6607582;27;33789;-87
2022/08/31 04:46:59;;;;;;;14.93;4.68;;;;;;;18.05;98.98;100486.66;6588240;27;31940;-87
2022/08/31 04:50:02;;;;;;;7.07;4.47;;;;;;;18.06;97.42;100478.25;6606659;27;34218;-87
2022/08/31 04:53:06;;;;;;;7.80;4.47;;;;;;;18.09;97.81;100477.78;6606523;27;32753;-87
2022/08/31 04:56:13;;;;;;;7.47;4.57;;;;;;;18.14;97.34;100493.47;6606727;27;33542;-87
2022/08/31 04:59:17;;;;;;;7.97;4.80;;;;;;;18.17;97.94;100489.47;6606922;27;33758;-88
2022/08/31 05:02:21;;;;;;;8.23;4.35;;;;;;;18.31;96.98;100497.28;6606882;26;33767;-91
2022/08/31 05:05:25;;;;;;;6.18;4.68;;;;;;;18.39;96.19;100492.59;6606657;27;34687;-91
2022/08/31 05:08:29;;;;;;;7.07;5.25;;;;;;;18.49;95.56;100485.56;6586392;27;32020;-88
2022/08/31 05:11:33;;;;;;;7.12;4.95;;;;;;;18.61;94.51;100490.25;6586493;27;32326;-87
2022/08/31 05:14:42;;;;;;;7.75;5.25;;;;;;;18.71;93.68;100494.09;6607079;27;34134;-87
2022/08/31 05:17:46;;;;;;;7.53;4.47;;;;;;;18.79;94.07;100488.34;6606852;27;33839;-87
2022/08/31 05:20:50;;;;;;;8.55;5.28;;;;;;;18.90;92.45;100497.66;6606471;27;33521;-87
2022/08/31 05:23:55;;;;;;;5.95;4.78;;;;;;;18.94;91.42;100500.75;6586853;27;32209;-87
2022/08/31 05:26:58;;;;;;;4.50;4.10;;;;;;;19.03;91.44;100504.84;6607762;26;34400;-86
2022/08/31 05:30:02;;;;;;;6.75;4.43;;;;;;;19.10;88.73;100502.88;6606497;27;33776;-87
2022/08/31 05:33:07;;;;;;;7.35;4.22;;;;;;;19.25;87.14;100505.19;6606443;27;33472;-87
2022/08/31 05:36:11;;;;;;;4.32;3.92;;;;;;;19.39;84.95;100501.19;6586759;27;31886;-87
2022/08/31 05:39:14;;;;;;;5.10;3.92;;;;;;;19.55;84.13;100507.03;6606336;27;33644;-87
2022/08/31 05:42:19;;;;;;;6.40;4.05;;;;;;;19.66;82.90;100507.09;6606201;27;33602;-87
2022/08/31 05:45:22;;;;;;;6.50;4.60;;;;;;;19.80;81.15;100506.88;6606039;27;34230;-87
2022/08/31 05:48:26;;;;;;;6.60;4.22;;;;;;;19.90;82.08;100507.13;6606121;27;33019;-87
2022/08/31 05:51:32;;;;;;;8.00;3.90;;;;;;;20.01;81.77;100497.28;6606834;27;33872;-87
2022/08/31 05:54:40;;;;;;;4.65;4.05;;;;;;;20.09;80.68;100500.47;6607350;27;33459;-87
2022/08/31 05:57:43;;;;;;;6.43;4.37;;;;;;;20.15;80.53;100498.69;6608180;27;33119;-87
2022/08/31 06:00:46;;;;;;;8.07;3.78;;;;;;;20.28;78.27;100492.16;6587746;27;32894;-87
2022/08/31 06:03:53;;;;;;;5.55;3.62;;;;;;;20.37;77.39;100502.47;6609058;26;33580;-87
2022/08/31 06:06:57;;;;;;;7.65;4.22;;;;;;;20.45;76.13;100504.03;6607554;27;33657;-85
2022/08/31 06:10:00;;;;;;;3.85;3.53;;;;;;;20.56;77.03;100505.09;6588931;27;32083;-86
2022/08/31 06:13:04;;;;;;;4.62;3.53;;;;;;;20.61;75.92;100497.00;6613423;27;33889;-85
2022/08/31 06:16:08;;;;;;;4.65;3.40;;;;;;;20.76;73.96;100501.97;6587452;27;32426;-85
2022/08/31 06:19:11;;;;;;;4.35;3.90;;;;;;;20.83;74.52;100498.03;6612031;27;33476;-85
2022/08/31 06:22:18;;;;;;;3.97;3.22;;;;;;;21.00;73.06;100503.56;6621917;26;35194;-85
2022/08/31 06:25:22;;;;;;;4.90;3.40;;;;;;;21.15;72.09;100507.66;6612778;26;33511;-85
2022/08/31 06:28:31;;;;;;;10.02;3.70;;;;;;;21.29;72.63;100507.13;6588364;27;32497;-85
2022/08/31 06:31:37;;;;;;;5.32;3.67;;;;;;;21.32;69.64;100492.09;6595515;27;33213;-85
2022/08/31 06:34:41;;;;;;;4.15;3.30;;;;;;;21.56;69.12;100501.06;6608608;27;32043;-85
2022/08/31 06:37:44;;;;;;;5.12;3.25;;;;;;;21.66;68.30;100501.22;6627457;26;33757;-85
2022/08/31 06:40:48;;;;;;;3.40;3.08;;;;;;;21.78;67.54;100506.62;6609780;27;34853;-86
2022/08/31 06:43:53;;;;;;;5.25;3.30;;;;;;;21.87;66.32;100509.78;6607849;27;33854;-85
2022/08/31 06:46:57;;;;;;;4.82;3.37;;;;;;;21.88;66.78;100504.06;6606747;27;33789;-89
2022/08/31 06:50:00;;;;;;;4.05;2.75;;;;;;;22.09;67.15;100498.91;6607533;27;34530;-89
2022/08/31 06:53:03;;;;;;;5.47;3.53;;;;;;;22.19;67.28;100512.78;6614708;27;33669;-89
2022/08/31 06:56:14;;;;;;;4.50;3.10;;;;;;;22.26;66.72;100513.47;6606936;27;33978;-86
2022/08/31 06:59:26;;;;;;;7.90;3.65;;;;;;;22.32;65.80;100506.97;6607143;27;33864;-85
2022/08/31 07:02:31;;;;;;;3.60;2.80;;;;;;;22.38;64.56;100514.19;6607780;27;33833;-85
2022/08/31 07:05:37;;;;;;;3.58;3.05;;;;;;;22.46;64.90;100512.06;6606352;26;33218;-85
2022/08/31 07:08:40;;;;;;;5.05;3.22;;;;;;;22.42;64.13;100515.31;6606972;27;34236;-85
2022/08/31 07:11:47;;;;;;;4.97;2.80;;;;;;;22.59;63.22;100520.75;6587279;27;31803;-85
2022/08/31 07:14:50;;;;;;;5.28;3.08;;;;;;;22.76;62.70;100519.91;6607281;27;33500;-85
2022/08/31 07:17:57;;;;;;;9.60;4.03;;;;;;;22.95;63.05;100520.41;6607071;27;34346;-85
2022/08/31 07:21:33;;;;;;;4.57;3.60;;;;;;;23.02;60.16;100521.87;6607128;27;33605;-85
2022/08/31 07:24:36;;;;;;;3.20;2.90;;;;;;;23.22;60.21;100520.44;6604299;27;33846;-86
2022/08/31 07:27:40;;;;;;;3.97;3.12;;;;;;;23.26;60.03;100519.69;6587278;27;31918;-86
2022/08/31 07:30:48;;;;;;;5.82;3.50;;;;;;;23.28;58.96;100519.41;6606906;27;33181;-85
2022/08/31 07:33:54;;;;;;;5.90;3.20;;;;;;;23.36;59.60;100520.88;6569432;27;32673;-85
2022/08/31 07:43:43;;;;;;;5.82;2.85;;;;;;;23.85;58.42;100518.06;6608419;27;34543;-90
2022/08/31 07:46:47;;;;;;;3.55;2.95;;;;;;;24.06;57.17;100522.63;6607955;27;33484;-90
2022/08/31 07:49:53;;;;;;;6.30;2.65;;;;;;;24.21;56.21;100519.97;6617694;27;33163;-90
2022/08/31 07:52:59;;;;;;;4.07;2.95;;;;;;;24.26;53.83;100508.16;6588418;27;32041;-86
2022/08/31 07:56:02;;;;;;;6.80;2.85;;;;;;;24.49;53.81;100511.66;6588494;27;32748;-85
2022/08/31 07:59:06;;;;;;;8.10;3.00;;;;;;;24.43;52.33;100514.38;6610161;27;34438;-86
2022/08/31 08:02:15;;;;;;;8.95;3.37;;;;;;;24.28;51.93;100511.50;6588180;27;32413;-86
2022/08/31 08:05:22;;;;;;;3.53;3.20;;;;;;;24.16;53.31;100502.59;6606514;26;33830;-85
2022/08/31 08:08:31;;;;;;;3.90;2.80;;;;;;;24.45;53.58;100500.31;6587468;27;31752;-85
2022/08/31 08:11:35;;;;;;;5.28;3.17;;;;;;;24.61;53.56;100496.56;6588317;27;33363;-86
2022/08/31 08:14:39;;;;;;;3.12;2.65;;;;;;;24.89;53.96;100483.44;6607683;27;34041;-86
2022/08/31 08:17:42;;;;;;;5.82;3.00;;;;;;;24.99;52.45;100485.41;6587880;27;33140;-86
2022/08/31 08:20:45;;;;;;;3.22;2.90;;;;;;;24.99;49.84;100482.66;6591004;27;32253;-86
2022/08/31 08:23:48;;;;;;;2.80;2.60;;;;;;;25.17;49.90;100484.13;6587514;27;31946;-86
2022/08/31 08:26:52;;;;;;;4.45;2.75;;;;;;;25.30;51.28;100478.06;6587278;27;32375;-86
2022/08/31 08:29:56;;;;;;;2.75;2.47;;;;;;;25.59;50.40;100474.78;6587520;27;31781;-86
2022/08/31 08:33:02;;;;;;;3.70;2.53;;;;;;;25.66;47.62;100473.41;6607967;27;33799;-86
2022/08/31 08:36:06;;;;;;;2.97;2.72;;;;;;;25.85;46.54;100472.88;6606815;27;33840;-86
2022/08/31 08:39:10;;;;;;;2.97;2.67;;;;;;;25.90;46.28;100475.62;6610347;27;34956;-86
2022/08/31 08:42:18;;;;;;;2.65;2.30;;;;;;;26.08;46.46;100475.03;6606701;27;33775;-86
2022/08/31 08:45:22;;;;;;;3.20;2.30;;;;;;;26.04;42.48;100481.41;6607353;27;34527;-86
2022/08/31 08:48:29;;;;;;;4.70;2.47;;;;;;;26.27;41.31;100474.44;6586595;27;32771;-86
2022/08/31 08:51:37;;;;;;;4.00;2.28;;;;;;;26.16;40.67;100474.47;6606427;27;33595;-85
2022/08/31 08:54:45;;;;;;;5.40;2.83;;;;;;;26.30;42.57;100471.16;6585573;27;31844;-86
2022/08/31 08:57:51;;;;;;;5.40;2.73;;;;;;;26.07;43.92;100469.81;6605867;27;33915;-86
2022/08/31 09:00:56;;;;;;;4.57;2.22;;;;;;;26.17;43.70;100470.59;6586015;27;31766;-86
2022/08/31 09:04:10;;;;;;;3.22;2.50;;;;;;;26.40;42.91;100466.41;6606001;27;33323;-86
2022/08/31 09:07:25;;;;;;;3.58;2.20;;;;;;;26.55;41.08;100468.31;6605830;26;34227;-86
2022/08/31 09:10:56;;;;;;;2.20;1.95;;;;;;;26.72;39.57;100454.16;6585499;27;33365;-87
2022/08/31 09:14:19;;;;;;;2.90;2.37;;;;;;;26.66;40.75;100453.34;6565405;27;32072;-86
2022/08/31 09:17:37;;;;;;;2.97;2.30;;;;;;;26.64;40.77;100449.22;6592542;26;34221;-86
2022/08/31 09:20:41;;;;;;;2.35;2.15;;;;;;;26.95;39.88;100451.84;6605683;27;33841;-86
2022/08/31 09:24:07;;;;;;;2.70;2.30;;;;;;;27.17;39.06;100449.50;6605745;27;33838;-86
2022/08/31 09:27:17;;;;;;;3.28;2.08;;;;;;;27.30;38.94;100437.00;6605609;27;33139;-86
2022/08/31 09:30:50;;;;;;;5.57;2.20;;;;;;;27.26;37.93;100435.91;6604690;27;34408;-86
2022/08/31 09:33:54;;;;;;;3.00;2.30;;;;;;;27.26;36.95;100430.37;6587606;27;31964;-86
2022/08/31 09:37:10;;;;;;;3.70;2.10;;;;;;;27.25;38.21;100434.25;6607406;27;33671;-86
2022/08/31 09:40:46;;;;;;;5.00;2.25;;;;;;;27.43;37.03;100432.72;6586582;27;32411;-87
2022/08/31 09:43:49;;;;;;;2.40;2.15;;;;;;;27.76;37.80;100429.12;6573210;27;32687;-86
2022/08/31 09:46:55;;;;;;;3.28;2.25;;;;;;;27.84;36.96;100418.56;6586963;27;31830;-87
2022/08/31 09:49:58;;;;;;;3.58;2.40;;;;;;;27.88;37.14;100417.69;6588158;27;32154;-86
2022/08/31 09:56:53;;;;;;;3.42;2.25;;;;;;;28.40;36.96;100412.38;6590387;27;32350;-86
2022/08/31 09:59:56;;;;;;;3.30;2.30;;;;;;;28.36;37.04;100408.56;6585021;26;31911;-86
2022/08/31 10:03:19;;;;;;;2.80;2.17;;;;;;;28.62;37.32;100415.47;6605588;27;33567;-86
2022/08/31 10:06:44;;;;;;;3.50;2.25;;;;;;;29.03;36.44;100400.22;6585522;27;32748;-86
2022/08/31 10:10:02;;;;;;;5.12;2.58;;;;;;;29.01;34.86;100408.78;6585816;27;31917;-86
2022/08/31 10:13:17;;;;;;;4.70;2.30;;;;;;;29.20;35.79;100403.28;6585818;27;31615;-86
2022/08/31 10:16:32;;;;;;;5.47;2.40;;;;;;;29.27;33.90;100392.63;6607277;27;33866;-91
2022/08/31 10:19:50;;;;;;;2.78;1.90;;;;;;;29.62;33.94;100393.16;6606964;27;33555;-87
2022/08/31 10:23:07;;;;;;;2.45;1.98;;;;;;;29.34;34.65;100384.75;6584028;26;33417;-87
2022/08/31 10:26:17;;;;;;;2.30;2.10;;;;;;;29.07;34.49;100384.62;6585936;27;31828;-87
2022/08/31 10:29:44;;;;;;;3.12;1.83;;;;;;;28.80;34.91;100376.97;6610567;27;34245;-87
2022/08/31 10:33:20;;;;;;;2.43;2.00;;;;;;;28.71;34.65;100366.56;6585996;27;32864;-87
2022/08/31 10:36:32;;;;;;;5.30;2.20;;;;;;;28.78;36.01;100370.91;6585276;27;33871;-86
2022/08/31 10:39:48;;;;;;;3.05;2.03;;;;;;;28.94;35.07;100361.25;6603365;27;33541;-86
2022/08/31 10:43:15;;;;;;;1.98;1.83;;;;;;;29.66;34.40;100358.16;6585545;27;32154;-86
2022/08/31 10:46:19;;;;;;;2.72;2.10;;;;;;;29.78;34.40;100354.88;6607856;27;33642;-87
2022/08/31 10:49:22;;;;;;;2.33;2.12;;;;;;;30.48;33.41;100345.41;6608083;27;33578;-87
2022/08/31 10:52:31;;;;;;;3.03;1.95;;;;;;;30.87;35.35;100349.53;6607597;27;32961;-87
2022/08/31 10:55:57;;;;;;;3.72;2.15;;;;;;;31.38;30.70;100351.03;6586190;27;32422;-87
2022/08/31 10:59:14;;;;;;;4.25;2.12;;;;;;;31.64;30.63;100351.19;6607211;27;33413;-87
2022/08/31 11:02:57;;;;;;;1.95;1.83;;;;;;;31.08;30.27;100339.53;6587202;27;32545;-87
2022/08/31 11:06:16;;;;;;;2.35;1.90;;;;;;;30.12;32.89;100342.50;6587217;27;32406;-87
2022/08/31 11:09:32;;;;;;;2.12;2.00;;;;;;;29.84;33.63;100336.97;6607304;26;33548;-86
2022/08/31 11:12:42;;;;;;;2.05;1.90;;;;;;;29.43;33.79;100346.03;6587123;27;32494;-87
2022/08/31 11:16:16;;;;;;;2.50;2.30;;;;;;;29.10;33.92;100339.66;6589034;27;33126;-86
2022/08/31 11:20:05;;;;;;;4.10;2.05;;;;;;;29.03;33.77;100339.25;6590063;27;32956;-86
2022/08/31 11:23:10;;;;;;;5.07;2.30;;;;;;;29.03;34.51;100334.50;6533346;27;33376;-87
2022/08/31 11:26:44;;;;;;;2.83;2.40;;;;;;;29.01;35.10;100330.38;6626143;26;34881;-87
2022/08/31 11:30:15;;;;;;;2.87;2.20;;;;;;;29.72;33.06;100331.94;6623351;26;34958;-87
2022/08/31 11:33:27;;;;;;;4.90;2.00;;;;;;;30.65;31.36;100322.47;6605452;26;34174;-87
2022/08/31 11:36:54;;;;;;;2.30;2.10;;;;;;;31.84;29.95;100317.22;6613073;27;33706;-87
2022/08/31 11:39:58;;;;;;;2.60;2.40;;;;;;;31.30;30.82;100319.25;6609847;27;33849;-90
2022/08/31 11:43:04;;;;;;;2.90;2.22;;;;;;;30.59;31.48;100315.41;6592111;27;33268;-90
2022/08/31 11:46:24;;;;;;;4.50;2.30;;;;;;;31.84;30.67;100306.06;6592988;27;33586;-87
2022/08/31 11:49:55;;;;;;;2.28;1.98;;;;;;;32.58;29.27;100309.22;6614131;26;33497;-88
2022/08/31 11:53:16;;;;;;;3.92;2.00;;;;;;;33.56;28.28;100308.47;6597699;26;33047;-88
2022/08/31 11:56:38;;;;;;;2.20;1.92;;;;;;;33.70;26.49;100305.44;6611668;26;34715;-88
2022/08/31 11:59:44;;;;;;;2.08;1.87;;;;;;;33.44;27.85;100304.72;6606195;26;33021;-87
2022/08/31 12:03:03;;;;;;;2.03;1.80;;;;;;;35.03;27.02;100302.25;6589198;26;33395;-88
2022/08/31 12:06:10;;;;;;;2.60;1.90;;;;;;;36.31;23.86;100301.00;6568267;26;32388;-88
2022/08/31 12:09:21;;;;;;;2.47;2.00;;;;;;;36.82;22.87;100306.13;6582878;27;33013;-87
2022/08/31 12:13:17;;;;;;;2.08;1.87;;;;;;;37.84;22.55;100300.84;6584696;26;33791;-88
2022/08/31 12:16:45;;;;;;;11.65;2.55;;;;;;;38.14;22.78;100291.13;6565224;27;32227;-87
2022/08/31 12:20:13;;;;;;;2.95;1.87;;;;;;;38.59;21.83;100281.31;6566690;27;32099;-87
2022/08/31 12:23:36;;;;;;;5.70;2.08;;;;;;;39.23;21.64;100293.84;6585570;27;33789;-87
2022/08/31 12:26:52;;;;;;;2.00;1.35;;;;;;;39.13;20.92;100291.63;6581587;27;34321;-87
2022/08/31 12:30:22;;;;;;;4.40;1.90;;;;;;;37.45;22.64;100281.00;6559054;27;32841;-87
2022/08/31 12:33:27;;;;;;;2.75;2.10;;;;;;;37.49;22.33;100271.88;6581991;27;33108;-86
2022/08/31 12:36:34;;;;;;;5.70;1.60;;;;;;;38.55;21.94;100272.75;6585678;27;33684;-86
2022/08/31 12:39:37;;;;;;;1.50;1.40;;;;;;;39.19;20.01;100276.84;6599100;27;35172;-86
2022/08/31 12:43:01;;;;;;;2.78;1.77;;;;;;;38.78;20.31;100272.84;6599312;27;34415;-90
2022/08/31 12:46:43;;;;;;;2.55;1.70;;;;;;;38.02;21.40;100270.38;6600020;27;34487;-87
2022/08/31 12:50:04;;;;;;;2.72;1.70;;;;;;;35.63;23.91;100261.59;6579074;27;33429;-87
2022/08/31 12:53:52;;;;;;;2.05;1.92;;;;;;;34.70;25.39;100267.50;6561868;27;31692;-86
2022/08/31 12:57:12;;;;;;;2.45;1.85;;;;;;;35.99;23.82;100257.13;6548128;27;32977;-86
2022/08/31 13:00:28;;;;;;;1.90;1.80;;;;;;;36.56;22.99;100256.09;6580588;27;33260;-87
2022/08/31 13:03:31;;;;;;;2.20;2.00;;;;;;;35.54;23.73;100252.44;6579728;27;33331;-88
2022/08/31 13:06:37;;;;;;;1.83;1.73;;;;;;;34.48;24.79;100254.66;6559793;27;32720;-90
2022/08/31 13:09:41;;;;;;;4.82;1.65;;;;;;;34.48;25.98;100251.88;6580003;27;34096;-90
2022/08/31 13:12:54;;;;;;;2.30;2.10;;;;;;;34.35;26.56;100246.56;6579132;27;34364;-87
2022/08/31 13:16:03;;;;;;;3.03;2.12;;;;;;;33.98;26.57;100243.50;6580745;27;33446;-87
2022/08/31 13:19:18;;;;;;;2.33;1.65;;;;;;;33.65;27.18;100255.38;6580272;27;34490;-86
2022/08/31 13:22:32;;;;;;;2.35;2.00;;;;;;;34.05;25.73;100250.25;6559585;27;32041;-87
2022/08/31 13:25:36;;;;;;;2.65;2.03;;;;;;;35.42;24.87;100251.28;6580714;27;33584;-87
2022/08/31 13:28:40;;;;;;;2.12;1.90;;;;;;;35.75;24.15;100250.37;6563198;27;33903;-87
2022/08/31 13:31:50;;;;;;;2.83;2.15;;;;;;;35.53;24.89;100248.00;6559081;27;33711;-86
2022/08/31 13:34:53;;;;;;;5.95;2.28;;;;;;;35.57;24.11;100238.59;6578408;27;34148;-86
2022/08/31 13:38:06;;;;;;;11.95;2.47;;;;;;;35.81;24.69;100240.56;6558475;27;32149;-86
2022/08/31 13:41:34;;;;;;;2.97;2.17;;;;;;;35.39;24.97;100245.53;6578869;27;34347;-86
2022/08/31 13:44:43;;;;;;;3.10;1.85;;;;;;;36.12;25.98;100235.53;6558889;27;31890;-87
2022/08/31 13:47:56;;;;;;;2.60;2.30;;;;;;;36.57;23.37;100238.09;6578738;27;34295;-87
2022/08/31 13:51:11;;;;;;;2.00;1.80;;;;;;;36.64;23.79;100231.88;6578389;27;34279;-87
2022/08/31 13:54:27;;;;;;;3.85;2.15;;;;;;;38.15;21.93;100228.91;6578684;27;33425;-87
2022/08/31 13:57:30;;;;;;;5.60;2.05;;;;;;;38.30;21.94;100224.41;6578481;27;33450;-87
2022/08/31 14:00:42;;;;;;;2.22;1.52;;;;;;;37.84;22.49;100221.34;6558607;27;31973;-87
2022/08/31 14:03:58;;;;;;;1.80;1.70;;;;;;;36.96;21.82;100213.09;6578914;27;34345;-87
2022/08/31 14:07:02;;;;;;;2.78;1.73;;;;;;;35.95;23.76;100219.75;6558762;27;34324;-87
2022/08/31 14:10:45;;;;;;;3.40;2.22;;;;;;;34.64;25.49;100212.94;6580370;27;33988;-86
2022/08/31 14:13:49;;;;;;;2.53;2.20;;;;;;;33.96;26.36;100217.88;6535285;27;35026;-86
2022/08/31 14:16:56;;;;;;;11.10;2.75;;;;;;;33.39;26.42;100217.19;6579681;27;34776;-86
2022/08/31 14:20:35;;;;;;;9.68;2.53;;;;;;;32.74;27.65;100223.94;6580227;27;34193;-86
2022/08/31 14:23:40;;;;;;;2.20;1.75;;;;;;;32.36;29.27;100219.03;6585297;27;33544;-86
2022/08/31 14:26:43;;;;;;;2.78;2.20;;;;;;;32.29;28.01;100219.53;6586961;27;33669;-86
2022/08/31 14:29:46;;;;;;;2.70;1.92;;;;;;;31.55;29.51;100217.56;6582279;27;33707;-86
2022/08/31 14:32:48;;;;;;;3.70;2.33;;;;;;;31.11;30.34;100212.94;6580657;27;33577;-86
2022/08/31 14:35:53;;;;;;;2.28;2.08;;;;;;;30.57;29.54;100218.47;6563164;27;33405;-86
2022/08/31 14:38:57;;;;;;;3.65;2.30;;;;;;;30.14;31.79;100216.13;6561446;27;31987;-86
2022/08/31 14:42:17;;;;;;;3.60;1.95;;;;;;;29.73;31.65;100205.91;6581034;27;33275;-87
2022/08/31 14:45:20;;;;;;;4.62;2.22;;;;;;;29.64;31.43;100207.78;6580998;27;33217;-91
2022/08/31 14:48:25;;;;;;;4.32;2.40;;;;;;;29.65;32.08;100206.66;6561062;27;34075;-88
2022/08/31 14:51:30;;;;;;;4.30;2.50;;;;;;;29.81;32.67;100204.38;6582186;27;33750;-88
2022/08/31 14:54:36;;;;;;;3.75;2.20;;;;;;;29.90;31.83;100201.69;6580759;27;33457;-88
2022/08/31 14:57:42;;;;;;;2.42;2.22;;;;;;;29.79;31.89;100201.91;6580594;27;35055;-87
2022/08/31 15:00:47;;;;;;;;;;;;;;;29.61;33.14;100200.88;6580839;27;33482;-87
2022/08/31 15:03:56;;;;;;;6.28;2.47;;;;;;;29.42;33.44;100196.56;6563187;27;32158;-87
2022/08/31 15:07:04;;;;;;;2.47;2.17;;;;;;;29.39;33.22;100198.00;6585628;27;34841;-87
2022/08/31 15:10:11;;;;;;;2.33;2.12;;;;;;;29.39;34.49;100200.75;6583812;27;33455;-87
2022/08/31 15:13:15;;;;;;;2.67;2.33;;;;;;;29.57;33.55;100207.34;6580822;27;34942;-87
2022/08/31 15:16:18;;;;;;;2.97;2.15;;;;;;;29.46;33.43;100206.75;6580403;27;33514;-87
2022/08/31 15:19:21;;;;;;;2.42;2.17;;;;;;;29.23;33.84;100197.47;6567793;27;33045;-87
2022/08/31 15:22:25;;;;;;;3.15;2.60;;;;;;;29.16;34.24;100194.28;6580475;27;33659;-87
2022/08/31 15:25:29;;;;;;;3.90;2.20;;;;;;;29.11;34.02;100191.62;6581995;27;34592;-87
2022/08/31 15:28:36;;;;;;;2.40;2.20;;;;;;;29.09;34.65;100191.91;6581049;27;33595;-87
2022/08/31 15:31:45;;;;;;;2.75;2.35;;;;;;;28.98;35.71;100195.16;6582696;27;34180;-87
2022/08/31 15:34:57;;;;;;;3.35;2.40;;;;;;;28.80;34.83;100191.31;6581572;27;33585;-87
2022/08/31 15:38:05;;;;;;;3.53;2.15;;;;;;;28.62;34.99;100193.84;6581102;27;34037;-87
2022/08/31 15:41:10;;;;;;;5.22;2.45;;;;;;;28.24;35.40;100193.03;6562632;27;32295;-87
2022/08/31 15:44:14;;;;;;;2.53;2.22;;;;;;;28.03;35.93;100195.28;6580241;27;33951;-87
2022/08/31 15:50:46;;;;;;;3.17;2.50;;;;;;;27.74;36.47;100184.31;6559914;27;33719;-87
2022/08/31 15:53:51;;;;;;;2.85;2.50;;;;;;;27.68;37.27;100189.09;6579548;27;34200;-87
2022/08/31 15:57:14;;;;;;;2.35;2.15;;;;;;;27.54;36.62;100196.47;6561240;27;32252;-87
2022/08/31 16:00:18;;;;;;;4.00;2.17;;;;;;;27.54;38.36;100185.41;6581270;27;34503;-88
